Time;durP1;ratioP1;P1;durP2;ratioP2;P2;SDS_P1;SDS_P2;PMS_P1;PMS_P2;Temp;Humidity;BMP_temperature;BMP_pressure;BME280_temperature;BME280_humidity;BME280_pressure;Samples;Min_cycle;Max_cycle;Signal;HPM_P1;HPM_P2
2021/04/24 00:00:26;;;;;;;1.53;1.20;;;7.40;89.80;;;;;;5039623;28;20834;-77
2021/04/24 00:02:54;;;;;;;1.50;1.23;;;7.40;89.60;;;;;;5035808;28;20546;-78
2021/04/24 00:05:25;;;;;;;1.50;1.30;;;7.40;89.30;;;;;;5047279;28;20574;-79
2021/04/24 00:07:53;;;;;;;1.53;1.37;;;7.40;88.80;;;;;;5036909;28;20586;-79
2021/04/24 00:10:20;;;;;;;1.50;1.23;;;7.50;88.30;;;;;;5039758;28;20470;-78
2021/04/24 00:12:47;;;;;;;1.50;1.20;;;7.50;87.90;;;;;;5029346;28;20471;-78
2021/04/24 00:15:15;;;;;;;1.50;1.33;;;7.50;87.60;;;;;;5042107;28;20482;-78
2021/04/24 00:17:42;;;;;;;1.50;1.30;;;7.50;87.20;;;;;;5048517;28;20494;-76
2021/04/24 00:20:12;;;;;;;1.50;1.20;;;7.50;87.10;;;;;;5039341;28;20462;-79
2021/04/24 00:22:39;;;;;;;1.50;1.33;;;7.50;86.70;;;;;;5027755;28;20473;-77
2021/04/24 00:25:06;;;;;;;1.50;1.20;;;7.50;87.00;;;;;;5040461;28;20474;-78
2021/04/24 00:27:32;;;;;;;1.50;1.30;;;7.50;86.70;;;;;;5040146;28;20479;-79
2021/04/24 00:29:59;;;;;;;1.50;1.30;;;7.50;86.80;;;;;;5045479;28;20775;-79
2021/04/24 00:32:26;;;;;;;1.50;1.20;;;7.50;86.30;;;;;;5052174;28;20463;-79
2021/04/24 00:34:53;;;;;;;1.50;1.30;;;7.40;86.30;;;;;;5038479;28;20490;-78
2021/04/24 00:37:19;;;;;;;1.50;1.40;;;7.40;86.20;;;;;;5019646;28;20470;-77
2021/04/24 00:39:45;;;;;;;1.50;1.30;;;7.40;86.50;;;;;;5027756;28;20470;-78
2021/04/24 00:42:12;;;;;;;1.50;1.30;;;7.30;86.40;;;;;;5031881;28;20468;-78
2021/04/24 00:44:45;;;;;;;1.50;1.27;;;7.30;86.10;;;;;;5035850;28;20490;-78
2021/04/24 00:47:12;;;;;;;1.50;1.20;;;7.30;86.00;;;;;;5043435;28;20470;-78
2021/04/24 00:49:39;;;;;;;1.53;1.40;;;7.30;85.90;;;;;;5035891;28;20941;-77
2021/04/24 00:52:06;;;;;;;1.50;1.30;;;7.30;85.60;;;;;;5043992;28;20466;-79
2021/04/24 00:54:32;;;;;;;1.50;1.30;;;7.20;85.80;;;;;;5043210;28;21033;-79
2021/04/24 00:56:59;;;;;;;1.50;1.40;;;7.20;85.60;;;;;;5041375;28;20505;-78
2021/04/24 00:59:26;;;;;;;1.50;1.30;;;7.20;85.80;;;;;;5033841;28;20468;-78
2021/04/24 01:01:52;;;;;;;1.53;1.33;;;7.20;85.80;;;;;;5035212;28;20467;-78
2021/04/24 01:04:18;;;;;;;1.50;1.30;;;7.20;85.60;;;;;;5032548;28;20972;-79
2021/04/24 01:06:46;;;;;;;1.50;1.20;;;7.20;85.60;;;;;;5029711;28;20809;-78
2021/04/24 01:09:12;;;;;;;1.50;1.30;;;7.20;85.70;;;;;;5049761;28;20553;-79
2021/04/24 01:11:38;;;;;;;1.50;1.30;;;7.10;85.50;;;;;;5034475;28;20462;-79
2021/04/24 01:14:04;;;;;;;1.50;1.20;;;7.10;85.60;;;;;;5032208;28;20961;-79
2021/04/24 01:16:31;;;;;;;1.50;1.30;;;7.10;85.60;;;;;;5037256;28;20486;-78
2021/04/24 01:18:57;;;;;;;1.53;1.37;;;7.10;85.70;;;;;;5033643;28;20466;-79
2021/04/24 01:21:26;;;;;;;1.50;1.20;;;7.00;86.10;;;;;;5039198;28;20482;-78
2021/04/24 01:23:53;;;;;;;1.50;1.30;;;7.00;86.00;;;;;;5041709;28;20838;-78
2021/04/24 01:26:20;;;;;;;1.50;1.30;;;7.00;86.00;;;;;;5032406;28;20493;-78
2021/04/24 01:28:46;;;;;;;1.60;1.30;;;7.00;86.10;;;;;;5033860;28;20479;-79
2021/04/24 01:31:13;;;;;;;1.50;1.20;;;6.90;86.40;;;;;;5040231;28;20470;-79
2021/04/24 01:33:39;;;;;;;1.50;1.20;;;6.90;86.40;;;;;;5037485;28;20468;-79
2021/04/24 01:36:06;;;;;;;1.50;1.30;;;6.90;86.40;;;;;;5036039;28;20491;-77
2021/04/24 01:38:33;;;;;;;1.50;1.30;;;6.90;86.60;;;;;;5040990;28;20455;-79
2021/04/24 01:41:00;;;;;;;1.53;1.30;;;6.80;86.60;;;;;;5040198;28;20467;-78
2021/04/24 01:43:28;;;;;;;1.57;1.30;;;6.80;86.70;;;;;;5038016;28;20466;-79
2021/04/24 01:45:55;;;;;;;1.50;1.30;;;6.80;86.70;;;;;;5047076;28;20494;-79
2021/04/24 01:48:21;;;;;;;1.50;1.23;;;6.70;87.30;;;;;;5030129;28;20506;-79
2021/04/24 01:50:48;;;;;;;1.50;1.30;;;6.70;87.10;;;;;;5025318;28;20499;-79
2021/04/24 01:53:18;;;;;;;1.50;1.20;;;6.60;87.60;;;;;;5037068;28;20469;-79
2021/04/24 01:55:45;;;;;;;1.60;1.40;;;6.60;87.70;;;;;;5024683;28;20498;-78
2021/04/24 01:58:15;;;;;;;1.53;1.33;;;6.50;87.70;;;;;;5021182;28;20829;-79
2021/04/24 02:00:44;;;;;;;1.50;1.30;;;6.50;87.70;;;;;;5037000;28;20516;-79
2021/04/24 02:03:12;;;;;;;1.50;1.30;;;6.50;87.70;;;;;;5058692;28;20524;-78
2021/04/24 02:05:39;;;;;;;1.60;1.33;;;6.40;87.30;;;;;;5047293;28;20862;-79
2021/04/24 02:08:07;;;;;;;1.50;1.30;;;6.40;87.40;;;;;;5028852;28;20483;-79
2021/04/24 02:10:34;;;;;;;1.50;1.30;;;6.40;87.80;;;;;;5033131;28;20478;-78
2021/04/24 02:13:07;;;;;;;1.50;1.30;;;6.40;87.60;;;;;;5030810;28;20486;-78
2021/04/24 02:15:34;;;;;;;1.50;1.30;;;6.40;87.60;;;;;;5035231;28;20487;-79
2021/04/24 02:18:01;;;;;;;1.50;1.30;;;6.40;87.70;;;;;;5019639;28;20455;-78
2021/04/24 02:20:27;;;;;;;1.53;1.30;;;6.30;87.70;;;;;;5032701;28;20516;-78
2021/04/24 02:22:54;;;;;;;1.50;1.30;;;6.30;87.70;;;;;;5030063;28;20463;-79
2021/04/24 02:25:21;;;;;;;1.50;1.40;;;6.30;88.00;;;;;;5030775;28;20483;-79
2021/04/24 02:27:48;;;;;;;1.50;1.20;;;6.30;88.40;;;;;;5027256;28;20475;-78
2021/04/24 02:30:17;;;;;;;1.57;1.40;;;6.30;88.10;;;;;;5033999;28;20470;-78
2021/04/24 02:32:46;;;;;;;1.53;1.30;;;6.30;88.10;;;;;;5047652;28;20985;-79
2021/04/24 02:35:16;;;;;;;1.53;1.37;;;6.20;88.30;;;;;;5042833;28;20482;-79
2021/04/24 02:37:42;;;;;;;1.50;1.30;;;6.20;88.40;;;;;;5041642;28;20472;-79
2021/04/24 02:40:14;;;;;;;1.50;1.40;;;6.20;88.80;;;;;;5026499;28;20464;-78
2021/04/24 02:42:40;;;;;;;1.50;1.30;;;6.10;89.00;;;;;;5039663;28;20458;-78
2021/04/24 02:45:09;;;;;;;1.50;1.20;;;6.10;88.60;;;;;;5036853;28;20896;-78
2021/04/24 02:47:36;;;;;;;1.53;1.30;;;6.00;88.90;;;;;;5034468;28;20455;-79
2021/04/24 02:50:05;;;;;;;1.60;1.50;;;6.00;88.70;;;;;;5022464;28;20569;-79
2021/04/24 02:52:31;;;;;;;1.57;1.40;;;6.00;88.90;;;;;;5040671;28;20463;-79
2021/04/24 02:54:58;;;;;;;1.50;1.30;;;6.00;89.00;;;;;;5033770;28;20795;-78
2021/04/24 02:57:24;;;;;;;1.50;1.30;;;6.00;89.20;;;;;;5033926;28;20483;-78
2021/04/24 02:59:50;;;;;;;1.53;1.30;;;5.90;89.10;;;;;;5027914;28;20462;-78
2021/04/24 03:02:17;;;;;;;1.57;1.33;;;5.90;88.80;;;;;;5031429;28;20525;-78
2021/04/24 03:04:44;;;;;;;1.60;1.40;;;5.90;89.30;;;;;;5040562;28;20901;-79
2021/04/24 03:07:12;;;;;;;1.50;1.20;;;5.90;89.10;;;;;;5037398;28;20492;-79
2021/04/24 03:09:38;;;;;;;1.50;1.30;;;5.90;89.30;;;;;;5041618;28;20954;-78
2021/04/24 03:12:06;;;;;;;1.53;1.40;;;5.80;89.40;;;;;;5028521;28;20560;-79
2021/04/24 03:14:33;;;;;;;1.57;1.40;;;5.80;89.40;;;;;;5024727;28;20485;-79
2021/04/24 03:17:00;;;;;;;1.50;1.30;;;5.80;89.70;;;;;;5043565;28;20466;-79
2021/04/24 03:19:26;;;;;;;1.60;1.50;;;5.80;89.90;;;;;;5037857;28;20862;-78
2021/04/24 03:21:52;;;;;;;1.60;1.40;;;5.70;89.80;;;;;;5035531;28;20463;-78
2021/04/24 03:24:19;;;;;;;1.53;1.30;;;5.70;90.20;;;;;;5032629;28;20476;-78
2021/04/24 03:26:46;;;;;;;1.60;1.40;;;5.60;90.60;;;;;;5042526;28;20454;-78
2021/04/24 03:29:12;;;;;;;1.57;1.33;;;5.60;90.20;;;;;;5032760;28;20537;-79
2021/04/24 03:31:38;;;;;;;1.57;1.30;;;5.60;90.80;;;;;;5022629;28;20468;-78
2021/04/24 03:34:05;;;;;;;1.60;1.50;;;5.50;90.50;;;;;;5035592;28;20973;-79
2021/04/24 03:36:31;;;;;;;1.60;1.30;;;5.50;90.40;;;;;;5042648;28;20479;-78
2021/04/24 03:38:58;;;;;;;1.60;1.40;;;5.50;90.40;;;;;;5022334;28;21010;-78
2021/04/24 03:41:25;;;;;;;1.60;1.50;;;5.40;91.40;;;;;;5036623;28;21101;-78
2021/04/24 03:43:51;;;;;;;1.50;1.30;;;5.40;91.40;;;;;;5022857;28;20459;-78
2021/04/24 03:46:17;;;;;;;1.53;1.30;;;5.40;90.70;;;;;;5013752;28;20509;-78
2021/04/24 03:48:43;;;;;;;1.60;1.33;;;5.30;91.30;;;;;;5039626;28;20509;-79
2021/04/24 03:51:10;;;;;;;1.60;1.40;;;5.30;91.30;;;;;;5027978;28;20475;-77
2021/04/24 03:53:36;;;;;;;1.57;1.30;;;5.30;90.90;;;;;;5038156;28;20459;-78
2021/04/24 03:56:03;;;;;;;1.60;1.47;;;5.20;91.10;;;;;;5036810;28;20518;-79
2021/04/24 03:58:30;;;;;;;1.60;1.40;;;5.20;91.30;;;;;;5029675;28;21022;-78
2021/04/24 04:00:57;;;;;;;1.60;1.30;;;5.20;91.20;;;;;;5037198;28;20753;-79
2021/04/24 04:03:23;;;;;;;1.60;1.40;;;5.20;91.70;;;;;;5040039;28;20466;-78
2021/04/24 04:05:49;;;;;;;1.50;1.40;;;5.10;91.10;;;;;;5044446;28;20490;-79
2021/04/24 04:08:16;;;;;;;1.53;1.30;;;5.10;91.90;;;;;;5036682;28;20475;-79
2021/04/24 04:10:44;;;;;;;1.60;1.40;;;5.10;91.60;;;;;;5039644;28;20462;-77
2021/04/24 04:13:13;;;;;;;1.57;1.30;;;5.00;92.00;;;;;;5037433;28;20889;-78
2021/04/24 04:15:40;;;;;;;1.60;1.50;;;5.00;92.20;;;;;;5036755;28;20482;-79
2021/04/24 04:18:09;;;;;;;1.60;1.40;;;5.00;91.80;;;;;;5034437;28;20479;-79
2021/04/24 04:20:37;;;;;;;1.60;1.40;;;4.90;92.50;;;;;;5037350;28;20465;-78
2021/04/24 04:23:03;;;;;;;1.57;1.30;;;4.90;92.50;;;;;;5036327;28;21191;-78
2021/04/24 04:25:29;;;;;;;1.60;1.40;;;4.90;92.50;;;;;;5040415;28;20883;-77
2021/04/24 04:27:56;;;;;;;1.57;1.40;;;4.90;92.80;;;;;;5032748;28;20456;-78
2021/04/24 04:30:23;;;;;;;1.67;1.57;;;4.80;92.80;;;;;;5030339;28;20546;-78
2021/04/24 04:32:51;;;;;;;1.60;1.50;;;4.80;92.60;;;;;;5032252;28;20455;-78
2021/04/24 04:35:18;;;;;;;1.50;1.30;;;4.80;92.50;;;;;;5034913;28;20497;-78
2021/04/24 04:37:44;;;;;;;1.60;1.30;;;4.80;93.00;;;;;;5029995;28;20490;-79
2021/04/24 04:40:13;;;;;;;1.70;1.60;;;4.80;92.50;;;;;;5035501;28;20802;-79
2021/04/24 04:42:40;;;;;;;1.57;1.40;;;4.80;92.70;;;;;;5035493;28;20477;-79
2021/04/24 04:45:08;;;;;;;1.53;1.40;;;4.80;92.90;;;;;;5038141;28;20892;-79
2021/04/24 04:47:34;;;;;;;1.60;1.40;;;4.80;93.10;;;;;;5035907;28;20454;-78
2021/04/24 04:50:02;;;;;;;1.57;1.40;;;4.80;93.10;;;;;;5031513;28;20526;-79
2021/04/24 04:52:28;;;;;;;1.60;1.50;;;4.90;93.10;;;;;;5030710;28;20458;-78
2021/04/24 04:54:54;;;;;;;1.57;1.40;;;4.90;92.90;;;;;;5034197;28;20498;-79
2021/04/24 04:57:20;;;;;;;1.60;1.50;;;4.90;93.00;;;;;;5036124;28;20447;-78
2021/04/24 04:59:46;;;;;;;1.50;1.30;;;4.90;93.20;;;;;;5027531;28;20829;-77
2021/04/24 05:02:13;;;;;;;1.70;1.60;;;5.00;93.20;;;;;;5027718;28;20966;-76
2021/04/24 05:04:39;;;;;;;1.60;1.43;;;5.00;93.40;;;;;;5042002;28;20533;-78
2021/04/24 05:07:06;;;;;;;1.53;1.40;;;5.10;93.40;;;;;;5016603;28;20463;-78
2021/04/24 05:09:32;;;;;;;1.57;1.30;;;5.10;93.30;;;;;;5047239;28;20458;-78
2021/04/24 05:11:59;;;;;;;1.50;1.30;;;5.20;93.30;;;;;;5054550;28;20458;-78
2021/04/24 05:14:25;;;;;;;1.50;1.30;;;5.20;93.20;;;;;;5030729;28;20538;-78
2021/04/24 05:16:51;;;;;;;1.53;1.30;;;5.30;93.30;;;;;;5035238;28;20485;-78
2021/04/24 05:19:17;;;;;;;1.57;1.30;;;5.30;93.20;;;;;;5030282;28;20487;-78
2021/04/24 05:21:43;;;;;;;1.57;1.30;;;5.40;93.20;;;;;;5032536;28;20471;-78
2021/04/24 05:24:11;;;;;;;1.60;1.30;;;5.50;92.90;;;;;;5031453;28;20479;-78
2021/04/24 05:26:37;;;;;;;1.57;1.30;;;5.60;92.80;;;;;;5036192;28;20464;-78
2021/04/24 05:29:04;;;;;;;1.60;1.40;;;5.60;92.60;;;;;;5034239;28;20467;-79
2021/04/24 05:31:31;;;;;;;1.50;1.33;;;5.80;92.00;;;;;;5035805;28;20998;-78
2021/04/24 05:33:57;;;;;;;1.50;1.23;;;5.90;92.40;;;;;;5028184;28;20468;-78
2021/04/24 05:36:24;;;;;;;1.50;1.30;;;6.10;92.40;;;;;;5032376;28;20482;-77
2021/04/24 05:38:52;;;;;;;1.60;1.40;;;6.20;91.90;;;;;;5039312;28;20578;-75
2021/04/24 05:41:21;;;;;;;1.50;1.30;;;6.30;91.90;;;;;;5026732;28;20955;-78
2021/04/24 05:43:48;;;;;;;1.50;1.20;;;6.50;91.10;;;;;;5018913;28;21011;-76
2021/04/24 05:46:14;;;;;;;1.60;1.30;;;6.60;90.60;;;;;;5021006;28;20487;-75
2021/04/24 05:48:41;;;;;;;1.53;1.30;;;6.70;90.20;;;;;;5027536;28;20509;-76
2021/04/24 05:51:07;;;;;;;1.50;1.30;;;6.80;89.60;;;;;;5028879;28;20474;-75
2021/04/24 05:53:34;;;;;;;1.60;1.40;;;6.80;88.50;;;;;;5037522;28;20488;-77
2021/04/24 05:56:00;;;;;;;1.57;1.30;;;6.80;88.20;;;;;;5038652;28;20490;-77
2021/04/24 05:58:27;;;;;;;3.50;3.20;;;6.80;88.40;;;;;;5031980;28;20493;-77
2021/04/24 06:00:53;;;;;;;1.50;1.30;;;6.90;88.60;;;;;;5036643;28;20501;-76
2021/04/24 06:03:20;;;;;;;1.60;1.33;;;6.90;88.40;;;;;;5031194;28;21003;-78
2021/04/24 06:05:46;;;;;;;1.60;1.30;;;7.00;88.30;;;;;;5035580;28;20540;-77
2021/04/24 06:08:12;;;;;;;1.50;1.20;;;7.20;88.10;;;;;;5031734;28;20463;-78
2021/04/24 06:10:39;;;;;;;1.53;1.30;;;7.30;87.30;;;;;;5031422;28;21017;-78
2021/04/24 06:13:05;;;;;;;1.50;1.20;;;7.40;87.50;;;;;;5027823;28;20514;-78
2021/04/24 06:15:32;;;;;;;1.50;1.20;;;7.60;87.00;;;;;;5042230;28;21000;-78
2021/04/24 06:17:58;;;;;;;1.60;1.33;;;7.70;86.20;;;;;;5031049;28;20540;-77
2021/04/24 06:20:25;;;;;;;1.50;1.20;;;7.80;85.90;;;;;;5016953;28;20464;-78
2021/04/24 06:22:51;;;;;;;1.50;1.20;;;7.90;85.60;;;;;;5034933;28;20511;-78
2021/04/24 06:25:18;;;;;;;1.57;1.33;;;8.00;85.60;;;;;;5026952;28;20480;-76
2021/04/24 06:27:46;;;;;;;1.50;1.30;;;8.10;85.30;;;;;;5037491;28;20532;-77
2021/04/24 06:30:14;;;;;;;1.50;1.20;;;8.20;84.80;;;;;;5032818;28;20479;-77
2021/04/24 06:32:42;;;;;;;1.57;1.30;;;8.30;85.00;;;;;;5031548;28;20459;-76
2021/04/24 06:35:10;;;;;;;1.50;1.30;;;8.40;84.20;;;;;;5021625;28;21014;-78
2021/04/24 06:37:37;;;;;;;1.50;1.20;;;8.50;84.30;;;;;;5023701;28;20536;-77
2021/04/24 06:40:04;;;;;;;1.57;1.20;;;8.80;84.60;;;;;;5026741;28;20459;-77
2021/04/24 06:42:31;;;;;;;1.50;1.20;;;9.00;83.50;;;;;;5026860;28;20473;-77
2021/04/24 06:44:58;;;;;;;1.50;1.10;;;9.10;82.30;;;;;;5041364;28;20983;-78
2021/04/24 06:47:25;;;;;;;1.50;1.20;;;9.10;82.40;;;;;;5043811;28;20564;-78
2021/04/24 06:49:52;;;;;;;1.50;1.10;;;9.20;82.10;;;;;;5031727;28;20811;-78
2021/04/24 06:52:18;;;;;;;1.50;1.20;;;9.30;81.70;;;;;;5031437;28;20463;-77
2021/04/24 06:54:45;;;;;;;1.50;1.20;;;9.30;81.40;;;;;;5033703;28;20494;-76
2021/04/24 06:57:11;;;;;;;1.60;1.50;;;9.20;81.70;;;;;;5034630;28;20460;-76
2021/04/24 06:59:37;;;;;;;1.50;1.20;;;9.30;81.90;;;;;;5030128;28;20493;-77
2021/04/24 07:02:03;;;;;;;1.50;1.10;;;9.40;81.90;;;;;;5028875;28;20839;-77
2021/04/24 07:04:30;;;;;;;1.50;1.10;;;9.60;81.80;;;;;;5037671;28;20486;-78
2021/04/24 07:06:57;;;;;;;1.50;1.10;;;9.70;82.30;;;;;;5034934;28;20455;-77
2021/04/24 07:09:24;;;;;;;1.50;1.10;;;9.80;80.80;;;;;;5028894;28;20483;-77
2021/04/24 07:11:50;;;;;;;1.50;1.10;;;9.80;81.00;;;;;;5042449;28;20472;-77
2021/04/24 07:14:16;;;;;;;1.50;1.10;;;9.90;81.00;;;;;;5033639;28;20464;-77
2021/04/24 07:16:43;;;;;;;1.50;1.20;;;10.00;80.60;;;;;;5024251;28;20460;-77
2021/04/24 07:19:09;;;;;;;1.50;1.10;;;10.30;80.30;;;;;;5021882;28;20527;-77
2021/04/24 07:21:35;;;;;;;1.50;1.10;;;10.40;79.80;;;;;;5038692;28;20456;-77
2021/04/24 07:24:02;;;;;;;1.50;1.10;;;10.50;78.70;;;;;;5025535;28;20474;-77
2021/04/24 07:26:29;;;;;;;1.50;1.10;;;10.50;78.30;;;;;;5035317;28;20803;-77
2021/04/24 07:28:55;;;;;;;1.50;1.10;;;10.60;78.00;;;;;;5036241;28;20478;-79
2021/04/24 07:31:21;;;;;;;1.50;1.10;;;10.60;76.90;;;;;;5041630;28;21215;-78
2021/04/24 07:33:48;;;;;;;1.50;1.00;;;10.70;76.10;;;;;;5043236;28;20468;-78
2021/04/24 07:36:14;;;;;;;1.50;1.10;;;10.80;75.90;;;;;;5047385;28;20505;-77
2021/04/24 07:38:40;;;;;;;1.50;1.17;;;11.00;75.90;;;;;;5047090;28;20498;-79
2021/04/24 07:41:08;;;;;;;1.50;1.10;;;11.10;75.40;;;;;;5046938;28;20981;-79
2021/04/24 07:43:34;;;;;;;1.50;1.10;;;11.10;75.10;;;;;;5051352;28;20466;-78
2021/04/24 07:46:01;;;;;;;1.50;1.03;;;11.20;73.90;;;;;;5052444;28;20494;-79
2021/04/24 07:48:27;;;;;;;1.50;1.10;;;11.20;74.80;;;;;;5053417;28;20492;-79
2021/04/24 07:50:53;;;;;;;1.50;1.10;;;11.30;75.10;;;;;;5042689;28;20551;-79
2021/04/24 07:53:20;;;;;;;1.50;1.00;;;11.40;74.10;;;;;;5051713;28;20461;-78
2021/04/24 07:55:47;;;;;;;1.50;1.10;;;11.40;73.60;;;;;;5020658;28;21009;-78
2021/04/24 07:58:15;;;;;;;1.50;1.00;;;11.50;74.40;;;;;;5018891;28;20487;-77
2021/04/24 08:00:41;;;;;;;1.50;1.00;;;11.60;74.10;;;;;;5047844;28;20925;-78
2021/04/24 08:03:07;;;;;;;1.50;1.13;;;11.80;74.30;;;;;;5046302;28;20486;-77
2021/04/24 08:05:34;;;;;;;1.50;1.00;;;11.80;74.20;;;;;;5027165;28;20491;-77
2021/04/24 08:08:00;;;;;;;1.50;1.00;;;11.70;74.20;;;;;;5029064;28;20489;-77
2021/04/24 08:10:27;;;;;;;1.50;1.10;;;11.80;74.30;;;;;;5038604;28;20463;-78
2021/04/24 08:12:53;;;;;;;1.50;1.00;;;12.00;74.40;;;;;;5054144;28;20489;-79
2021/04/24 08:15:21;;;;;;;1.50;1.10;;;12.20;74.50;;;;;;5039401;28;20491;-78
2021/04/24 08:17:47;;;;;;;1.50;1.00;;;12.40;73.50;;;;;;5041958;28;20510;-78
2021/04/24 08:20:14;;;;;;;1.50;1.00;;;12.60;73.10;;;;;;5034484;28;20840;-78
2021/04/24 08:22:41;;;;;;;1.50;1.10;;;12.80;73.70;;;;;;5040597;28;20460;-79
2021/04/24 08:25:08;;;;;;;1.50;1.00;;;12.90;72.50;;;;;;5042394;28;20513;-78
2021/04/24 08:27:35;;;;;;;1.50;1.00;;;12.80;72.90;;;;;;5035766;28;20467;-77
2021/04/24 08:30:01;;;;;;;1.50;1.10;;;12.80;72.00;;;;;;5033315;28;21035;-77
2021/04/24 08:32:28;;;;;;;1.50;1.10;;;12.80;72.10;;;;;;5034450;28;20459;-78
2021/04/24 08:34:55;;;;;;;1.50;1.00;;;12.80;72.90;;;;;;5034211;28;20485;-77
2021/04/24 08:37:21;;;;;;;1.50;1.00;;;13.00;73.30;;;;;;5036688;28;20477;-77
2021/04/24 08:39:47;;;;;;;1.47;0.90;;;13.00;73.90;;;;;;5028703;28;20489;-77
2021/04/24 08:42:15;;;;;;;1.50;1.10;;;13.10;74.30;;;;;;5020726;28;20471;-78
2021/04/24 08:44:42;;;;;;;1.50;1.00;;;13.20;71.70;;;;;;5028004;28;20518;-78
2021/04/24 08:47:09;;;;;;;1.50;1.00;;;13.40;72.80;;;;;;5034493;28;20826;-75
2021/04/24 08:49:36;;;;;;;1.50;1.00;;;13.50;72.40;;;;;;5028432;28;20461;-76
2021/04/24 08:52:04;;;;;;;1.50;0.90;;;13.50;71.00;;;;;;5024796;28;20495;-77
2021/04/24 08:54:30;;;;;;;1.50;1.00;;;13.60;70.90;;;;;;5031069;28;20494;-79
2021/04/24 08:56:57;;;;;;;1.50;1.00;;;13.70;70.20;;;;;;5021862;28;20464;-78
2021/04/24 08:59:23;;;;;;;1.50;1.00;;;13.60;70.10;;;;;;5029659;28;20486;-78
2021/04/24 09:01:50;;;;;;;1.50;0.93;;;13.50;70.70;;;;;;5024559;28;20969;-79
2021/04/24 09:04:17;;;;;;;1.50;1.00;;;13.40;71.40;;;;;;5030996;28;20476;-78
2021/04/24 09:06:44;;;;;;;1.50;1.00;;;13.40;70.40;;;;;;5033992;28;20521;-77
2021/04/24 09:09:12;;;;;;;1.50;1.00;;;13.20;71.50;;;;;;5021510;28;20550;-78
2021/04/24 09:11:40;;;;;;;1.43;1.00;;;13.20;72.10;;;;;;5024854;28;20459;-77
2021/04/24 09:14:09;;;;;;;1.50;1.00;;;13.30;71.70;;;;;;5037445;28;20463;-78
2021/04/24 09:16:39;;;;;;;1.50;0.97;;;13.40;71.40;;;;;;5024110;28;20471;-78
2021/04/24 09:19:33;;;;;;;1.50;1.00;;;13.60;72.80;;;;;;5039086;28;20475;-78
2021/04/24 09:22:14;;;;;;;1.50;1.00;;;13.90;72.40;;;;;;5035186;28;20469;-79
2021/04/24 09:24:41;;;;;;;1.47;0.90;;;14.10;71.20;;;;;;5045045;28;20475;-78
2021/04/24 09:27:08;;;;;;;1.50;0.90;;;14.20;71.20;;;;;;5032013;28;20463;-78
2021/04/24 09:29:34;;;;;;;1.50;0.90;;;14.40;71.60;;;;;;5023113;28;20464;-78
2021/04/24 09:32:20;;;;;;;1.50;1.00;;;14.50;69.80;;;;;;5042466;28;20477;-78
2021/04/24 09:34:48;;;;;;;1.50;0.90;;;14.70;69.30;;;;;;5043982;28;20570;-78
2021/04/24 09:37:17;;;;;;;1.50;1.00;;;14.70;68.70;;;;;;5036765;28;20465;-78
2021/04/24 09:39:47;;;;;;;1.50;0.90;;;14.90;70.70;;;;;;5035203;28;20478;-78
2021/04/24 09:42:34;;;;;;;1.47;0.90;;;15.20;69.40;;;;;;5043770;28;20554;-78
2021/04/24 09:45:01;;;;;;;1.50;1.00;;;15.30;67.70;;;;;;5040466;28;20511;-78
2021/04/24 09:47:40;;;;;;;1.50;1.00;;;15.30;68.60;;;;;;5056281;28;20483;-78
2021/04/24 09:50:15;;;;;;;1.50;0.90;;;15.30;67.50;;;;;;5054684;28;20451;-79
2021/04/24 09:52:43;;;;;;;1.50;0.97;;;15.20;67.00;;;;;;5039468;28;20457;-77
2021/04/24 09:55:36;;;;;;;1.50;0.90;;;15.10;69.00;;;;;;5029945;28;20501;-77
2021/04/24 09:58:04;;;;;;;1.50;0.90;;;15.20;67.90;;;;;;5036609;28;20478;-78
2021/04/24 10:00:30;;;;;;;1.50;1.00;;;15.30;68.20;;;;;;5026987;28;20463;-77
2021/04/24 10:02:58;;;;;;;1.47;0.90;;;15.30;68.10;;;;;;5033316;28;20527;-77
2021/04/24 10:05:25;;;;;;;1.50;1.00;;;15.30;67.70;;;;;;5046052;28;20483;-78
2021/04/24 10:07:59;;;;;;;1.47;0.90;;;15.30;66.40;;;;;;5049581;28;20470;-79
2021/04/24 10:10:38;;;;;;;1.50;1.00;;;15.20;67.20;;;;;;5042269;28;20866;-77
2021/04/24 10:13:20;;;;;;;1.60;1.00;;;15.10;68.20;;;;;;5035553;28;20962;-74
2021/04/24 10:15:48;;;;;;;1.50;1.00;;;15.30;68.80;;;;;;5034177;28;20589;-76
2021/04/24 10:18:15;;;;;;;1.43;0.90;;;15.50;67.10;;;;;;5043950;28;20535;-77
2021/04/24 10:20:43;;;;;;;1.43;0.90;;;15.50;67.10;;;;;;5034667;28;20458;-77
2021/04/24 10:23:12;;;;;;;1.47;0.90;;;15.60;66.10;;;;;;5038054;28;20478;-76
2021/04/24 10:25:40;;;;;;;1.47;0.90;;;15.70;65.90;;;;;;5037067;28;21074;-77
2021/04/24 10:28:07;;;;;;;1.50;0.90;;;15.80;67.40;;;;;;5042335;28;20511;-77
2021/04/24 10:30:34;;;;;;;1.47;0.90;;;16.10;67.00;;;;;;5035101;28;20463;-77
2021/04/24 10:33:02;;;;;;;1.50;0.90;;;16.30;65.50;;;;;;5035926;28;20554;-78
2021/04/24 10:35:31;;;;;;;1.50;0.90;;;16.20;65.20;;;;;;5040253;28;20478;-77
2021/04/24 10:37:58;;;;;;;1.50;1.00;;;16.20;65.50;;;;;;5038532;28;20546;-76
2021/04/24 10:40:25;;;;;;;1.50;0.90;;;16.30;66.40;;;;;;5031304;28;20470;-77
2021/04/24 10:42:53;;;;;;;1.50;1.00;;;16.30;65.60;;;;;;5032649;28;20825;-76
2021/04/24 10:45:28;;;;;;;1.47;0.90;;;16.30;64.30;;;;;;5029479;28;20526;-76
2021/04/24 10:47:55;;;;;;;1.47;0.90;;;16.40;65.20;;;;;;5034865;28;20481;-77
2021/04/24 10:50:24;;;;;;;1.50;0.90;;;16.30;65.40;;;;;;5026117;28;20533;-76
2021/04/24 10:52:51;;;;;;;1.50;0.90;;;16.00;65.10;;;;;;5030104;28;20467;-76
2021/04/24 10:55:28;;;;;;;1.50;0.90;;;16.10;66.90;;;;;;5032366;28;20519;-76
2021/04/24 10:57:59;;;;;;;1.50;0.90;;;16.30;66.90;;;;;;5041233;28;20822;-77
2021/04/24 11:00:53;;;;;;;1.50;0.90;;;16.60;66.00;;;;;;5029947;28;20480;-79
2021/04/24 11:03:42;;;;;;;1.93;1.83;;;16.80;65.10;;;;;;5031308;28;20461;-78
2021/04/24 11:06:10;;;;;;;1.50;0.90;;;16.70;64.40;;;;;;5030561;28;20494;-77
2021/04/24 11:08:38;;;;;;;1.60;1.03;;;16.50;63.70;;;;;;5036079;28;20892;-77
2021/04/24 11:11:15;;;;;;;1.50;0.90;;;16.40;64.60;;;;;;5015361;28;20464;-78
2021/04/24 11:13:43;;;;;;;1.47;0.90;;;16.30;65.10;;;;;;5025488;28;20466;-77
2021/04/24 11:16:12;;;;;;;1.47;0.90;;;16.30;65.00;;;;;;5037491;28;20601;-77
2021/04/24 11:18:40;;;;;;;1.47;0.93;;;16.30;64.20;;;;;;5036480;28;20443;-78
2021/04/24 11:21:08;;;;;;;1.50;0.93;;;16.20;64.20;;;;;;5024743;28;20469;-77
2021/04/24 11:23:49;;;;;;;1.50;1.17;;;16.10;66.10;;;;;;5028923;28;20459;-78
2021/04/24 11:26:19;;;;;;;1.50;0.90;;;16.10;65.10;;;;;;5022310;28;21080;-77
2021/04/24 11:29:07;;;;;;;1.50;1.00;;;16.20;65.50;;;;;;5031585;28;20485;-77
2021/04/24 11:31:59;;;;;;;4.83;2.73;;;16.20;65.50;;;;;;5037677;28;20462;-77
2021/04/24 11:34:32;;;;;;;1.43;0.90;;;16.20;65.30;;;;;;5024834;28;20473;-77
2021/04/24 11:37:27;;;;;;;1.47;0.90;;;16.50;66.70;;;;;;5020997;28;20460;-77
2021/04/24 11:40:29;;;;;;;1.47;0.90;;;16.80;63.30;;;;;;5025058;28;20985;-77
2021/04/24 11:43:08;;;;;;;1.50;0.90;;;17.00;63.90;;;;;;5033061;28;20467;-78
2021/04/24 11:45:54;;;;;;;1.50;1.00;;;17.00;63.50;;;;;;5048638;28;21107;-78
2021/04/24 11:48:56;;;;;;;1.43;0.90;;;17.10;63.20;;;;;;5033437;28;20986;-78
2021/04/24 11:51:35;;;;;;;1.50;0.90;;;17.20;62.10;;;;;;5024326;28;20480;-78
2021/04/24 11:54:03;;;;;;;1.47;0.90;;;16.90;62.30;;;;;;5036265;28;20466;-76
2021/04/24 11:56:33;;;;;;;1.50;1.00;;;16.70;63.10;;;;;;5031455;28;20564;-76
2021/04/24 11:59:01;;;;;;;1.70;1.40;;;16.60;64.10;;;;;;5028765;28;20490;-77
2021/04/24 12:01:28;;;;;;;1.47;0.90;;;16.50;62.70;;;;;;5029462;28;20798;-78
2021/04/24 12:03:55;;;;;;;1.50;0.90;;;16.60;63.80;;;;;;5028941;28;20472;-78
2021/04/24 12:06:35;;;;;;;1.47;0.90;;;16.70;62.40;;;;;;5042693;28;20474;-77
2021/04/24 12:09:03;;;;;;;1.50;0.90;;;16.80;62.80;;;;;;5037529;28;20482;-77
2021/04/24 12:11:29;;;;;;;1.50;1.00;;;17.10;63.20;;;;;;5024545;28;20526;-79
2021/04/24 12:13:55;;;;;;;1.50;0.90;;;17.30;62.30;;;;;;5032771;28;20475;-78
2021/04/24 12:16:43;;;;;;;1.50;0.90;;;17.30;63.40;;;;;;5034385;28;20867;-77
2021/04/24 12:19:32;;;;;;;1.50;1.10;;;17.60;62.10;;;;;;5038015;28;20462;-78
2021/04/24 12:22:11;;;;;;;1.43;0.90;;;17.80;61.10;;;;;;5031855;28;20491;-78
2021/04/24 12:24:53;;;;;;;1.50;0.90;;;18.00;62.50;;;;;;5033476;28;20490;-77
2021/04/24 12:27:29;;;;;;;1.50;0.90;;;18.00;62.70;;;;;;5037525;28;20471;-77
2021/04/24 12:29:57;;;;;;;1.47;0.90;;;18.10;61.70;;;;;;5031057;28;20491;-76
2021/04/24 12:32:31;;;;;;;1.60;1.27;;;18.10;59.60;;;;;;5030931;28;20484;-77
2021/04/24 12:35:17;;;;;;;1.60;1.27;;;18.10;60.20;;;;;;5030146;28;20480;-78
2021/04/24 12:37:44;;;;;;;1.47;0.90;;;18.10;60.60;;;;;;5040119;28;20459;-80
2021/04/24 12:40:17;;;;;;;1.50;0.90;;;18.10;60.50;;;;;;5039175;28;20464;-78
2021/04/24 12:42:44;;;;;;;1.47;0.90;;;18.30;61.60;;;;;;5033409;28;20544;-76
2021/04/24 12:45:14;;;;;;;1.50;1.00;;;18.30;60.80;;;;;;5017577;28;20484;-77
2021/04/24 12:47:42;;;;;;;1.50;0.90;;;18.40;59.70;;;;;;5029300;28;20543;-77
2021/04/24 12:50:12;;;;;;;1.50;0.90;;;18.50;59.00;;;;;;5028501;28;20596;-76
2021/04/24 12:52:43;;;;;;;1.50;0.90;;;18.70;59.70;;;;;;5032279;28;20469;-77
2021/04/24 12:55:10;;;;;;;1.47;0.90;;;18.80;59.10;;;;;;5032704;28;20858;-78
2021/04/24 12:57:37;;;;;;;1.50;1.10;;;19.00;60.10;;;;;;5039009;28;20532;-77
2021/04/24 13:00:08;;;;;;;1.60;1.10;;;19.10;58.60;;;;;;5033034;28;20464;-78